Tiempo atmosférico en la estación meteorológica de Barbastro, Huesca (305 m.)

Fecha
DESCASC
Temp. máxima en grados centígrados (hora)
DESCASC
Temp. mínima en grados centígrados (hora)
DESCASC
Temp. media en grados centígrados
DESCASC
Racha de viento máxima en m/sg (hora)
DESCASC
Velocidad máxima media en intervalos de 10 minutos(hora)
DESCASC
Precipitaciones diarias en mm
DESCASC
Precipitaciones de 00:00 a 06:00 en mm
DESCASC
Precipitaciones de 06:00 a 12:00 en mm
DESCASC
Precipitaciones de 12:00 a 18:00 en mm
DESCASC
Precipitaciones de 18:00 a 24:00 en mm
DESCASC
17-08-2017 35 (17:40) 16.5 (07:20) 25.8 6.11 (13:00) 2.78 (13:50) 0 0 0 0 0
16-08-2017 33.1 (19:00) 17.5 (05:00) 25.3 5.56 (14:10) 2.78 (14:10) 0 0 0 0 0
15-08-2017 33.2 (17:50) 13.9 (00:00) 23.6 8.06 (13:20) 5 (20:50) 0.4 0 0 0 0.4
14-08-2017 33.5 (18:10) 14.5 (07:30) 24 7.22 (19:40) 3.33 (13:40) 0 0 0 0 0
13-08-2017 32.1 (17:30) 12.4 (00:00) 22.2 5.83 (15:40) 3.06 (14:40) 0 0 0 0 0
12-08-2017 29.4 (17:40) 10.3 (00:00) 19.8 7.22 (15:10) 4.17 (15:20) 0 0 0 0 0
11-08-2017 28.2 (17:50) 9.2 (00:00) 18.7 9.17 (18:20) 5 (18:20) 0 0 0 0 0
10-08-2017 27.8 (16:40) 7.4 (00:00) 17.6 14.17 (18:30) 7.22 (18:40) 0 0 0 0 0
09-08-2017 22.4 (15:50) 11.5 (00:00) 16.9 5.83 (17:20) 2.5 (11:50) 0.2 0 0 0 0.2
08-08-2017 31.6 (16:00) 17.1 (00:00) 24.4 11.39 (18:30) 5.28 (18:50) 0 0 0 0 0
07-08-2017 33 (16:30) 19.8 (00:00) 26.4 7.22 (20:30) 3.61 (19:40) 0 0 0 0 0
06-08-2017 31.1 (18:20) 18.3 (00:00) 24.7 6.11 (03:40) 2.78 (01:10) 0 0 0 0 0
05-08-2017 36.9 (16:30) 19.4 (00:00) 28.2 6.11 (11:30) 3.33 (17:20) 0 0 0 0 0
04-08-2017 38.2 (17:20) 20 (00:00) 29.1 8.06 (18:40) 4.44 (18:40) 0 0 0 0 0
03-08-2017 38.5 (18:30) 20.2 (00:00) 29.4 6.39 (16:30) 3.33 (16:00) 0 0 0 0 0
02-08-2017 36.2 (15:30) 19.6 (00:00) 27.9 8.33 (16:00) 4.17 (16:00) 0 0 0 0 0
01-08-2017 31.5 (18:10) 19.8 (00:00) 25.6 6.39 (18:20) 3.61 (18:20) 0.6 0 0.6 0 0
31-07-2017 35.7 (18:00) 18 (00:00) 26.9 9.17 (18:30) 3.89 (18:30) 0 0 0 0 0
30-07-2017 37.1 (18:20) 19.1 (00:00) 28.1 7.22 (14:40) 3.61 (19:50) 0 0 0 0 0
29-07-2017 35.2 (17:30) 18.9 (00:00) 27.1 7.5 (15:10) 3.33 (15:20) 0 0 0 0 0
28-07-2017 34.4 (18:40) 17.7 (00:00) 26.1 7.5 (12:20) 3.61 (11:50) 0 0 0 0 0
27-07-2017 37.6 (19:00) 14.3 (00:00) 25.9 7.78 (15:20) 3.89 (17:10) 0 0 0 0 0
26-07-2017 33.6 (18:20) 11.5 (00:00) 22.5 8.61 (19:50) 4.17 (21:20) 0 0 0 0 0
25-07-2017 31.1 (16:40) 12.1 (00:00) 21.6 10 (17:50) 5.28 (18:30) 0 0 0 0 0
24-07-2017 33.1 (16:20) 15.3 (00:00) 24.2 12.5 (18:40) 6.67 (18:40) 0 0 0 0 0
23-07-2017 29.8 (15:50) 19.8 (00:00) 24.8 8.33 (21:30) 3.89 (12:10) 0 0 0 0 0
22-07-2017 32.5 (18:10) 16.9 (00:00) 24.7 7.5 (15:00) 3.61 (15:10) 0 0 0 0 0

Gráficas

Temp. máximas Temp. mínimas Temp. medias Precipitaciones Rachas de viento máximas Velocidades máximas media en intervalos de 10 minutos

Datos horarios

Fecha y hora oficial Temperatura (ºC) Velocidad del viento (km/h) Dirección del viento Racha (km/h) Dirección de racha Precipitación (mm) Presión (hPa) Tendencia (hPa) Humedad (%)
2017-08-20 23:00:00 19.7 0 Calma 4 Noroeste 0 -- -- 59
2017-08-20 22:00:00 22.3 0 Calma 5 Sudeste 0 -- -- 53
2017-08-20 21:00:00 25.7 3 Sudeste 11 Sur 0 -- -- 45
2017-08-20 20:00:00 28.5 4 Sudeste 14 Sudeste 0 -- -- 38
2017-08-20 19:00:00 30.3 8 Sur 19 Sudeste 0 -- -- 32
2017-08-20 18:00:00 30.2 5 Sur 18 Este 0 -- -- 37
2017-08-20 17:00:00 29.9 6 Sudoeste 17 Sudoeste 0 -- -- 36
2017-08-20 16:00:00 28.7 6 Sur 16 Sur 0 -- -- 39
2017-08-20 15:00:00 27.2 8 Sudoeste 17 Este 0 -- -- 39
2017-08-20 14:00:00 25.6 9 Sur 18 Sur 0 -- -- 44
2017-08-20 13:00:00 24.2 8 Sudeste 20 Sudeste 0 -- -- 47
2017-08-20 12:00:00 22.7 7 Sudeste 20 Este 0 -- -- 51
2017-08-20 11:00:00 21 9 Sudeste 17 Sur 0 -- -- 56
2017-08-20 10:00:00 19.6 6 Sudeste 10 Sudeste 0 -- -- 62
2017-08-20 09:00:00 15.8 0 Calma 2 Sudeste 0 -- -- 75
2017-08-20 08:00:00 12 0 Calma 5 Sudeste 0 -- -- 87
2017-08-20 07:00:00 12.2 0 Calma -- -- 0 -- -- 83
2017-08-20 06:00:00 12.9 0 Calma 3 Sudeste 0 -- -- 80
2017-08-20 05:00:00 13.7 0 Calma 5 Noroeste 0 -- -- 78
2017-08-20 04:00:00 14.6 0 Calma 3 Oeste 0 -- -- 70
2017-08-20 03:00:00 15.6 0 Calma 5 Oeste 0 -- -- 70
2017-08-20 02:00:00 16.9 0 Calma 7 Este 0 -- -- 66
2017-08-20 01:00:00 18.2 0 Calma 8 Sudeste 0 -- -- 65
2017-08-20 00:00:00 18.9 3 Sudeste 6 Norte 0 -- -- 62
2017-08-19 23:00:00 20.3 0 Calma 5 Este 0 -- -- 61
2017-08-19 22:00:00 22.8 0 Calma 6 Sur 0 -- -- 53
2017-08-19 21:00:00 26.9 0 Calma 12 Sudoeste 0 -- -- 41
2017-08-19 20:00:00 30.1 7 Sudoeste 21 Sur 0 -- -- 32
2017-08-19 19:00:00 31.5 8 Sur 20 Sur 0 -- -- 29
2017-08-19 18:00:00 31.6 9 Sur 21 Sudeste 0 -- -- 30
2017-08-19 17:00:00 30.2 7 Sudeste 18 Sur 0 -- -- 43
2017-08-19 16:00:00 29.9 8 Sudeste 17 Sudeste 0 -- -- 43
2017-08-19 15:00:00 28.5 6 Sudeste 21 Sudoeste 0 -- -- 45
2017-08-19 14:00:00 27.6 9 Sur 19 Sur 0 -- -- 48
2017-08-19 13:00:00 26.2 8 Sur 18 Sudeste 0 -- -- 50
2017-08-19 12:00:00 24.5 9 Sudeste 22 Sur 0 -- -- 54
2017-08-19 11:00:00 22.9 6 Sudeste 18 Este 0 -- -- 58
2017-08-19 10:00:00 21.4 10 Sudeste 19 Sudeste 0 -- -- 63
2017-08-19 09:00:00 19.5 6 Sudeste 12 Este 0 -- -- 77
2017-08-19 08:00:00 16.6 0 Calma 4 Nordeste 0 -- -- 82
2017-08-19 07:00:00 17.1 0 Calma 5 Sudeste 0 -- -- 78
2017-08-19 06:00:00 18.3 0 Calma 6 Sudeste 0 -- -- 75
2017-08-19 05:00:00 20 0 Calma 6 Norte 0 -- -- 69
2017-08-19 04:00:00 21 4 Sudoeste 15 Sudeste 0 -- -- 65
2017-08-19 03:00:00 21.9 3 Sudeste 14 Este 0 -- -- 64
2017-08-19 02:00:00 23.1 5 Este 15 Nordeste 0 -- -- 60
2017-08-19 01:00:00 24.6 4 Oeste 11 Oeste 0 -- -- 52
2017-08-19 00:00:00 24.8 5 Oeste 13 Oeste 0 -- -- 49
2017-08-18 23:00:00 26.2 5 Norte 29 Oeste 0 -- -- 44
2017-08-18 22:00:00 27.6 8 Noroeste 42 Sudoeste 0 -- -- 42
2017-08-18 21:00:00 29.3 22 Oeste 41 Oeste 0 -- -- 41
2017-08-18 20:00:00 32.4 16 Sudoeste 40 Sudoeste 0 -- -- 36
2017-08-18 19:00:00 35.1 13 Sudoeste 29 Oeste 0 -- -- 36
2017-08-18 18:00:00 36.1 11 Sudoeste 27 Sudeste 0 -- -- 31
2017-08-18 17:00:00 36.2 8 Sudoeste 22 Sudoeste 0 -- -- 33
2017-08-18 16:00:00 35.2 8 Sudoeste 26 Sudoeste 0 -- -- 34
2017-08-18 15:00:00 33.8 9 Sudeste 23 Este 0 -- -- 38
2017-08-18 14:00:00 32.7 12 Sur 22 Sur 0 -- -- 38
2017-08-18 13:00:00 32 10 Sur 18 Sur 0 -- -- 40
2017-08-18 12:00:00 30.7 6 Sudeste 15 Este 0 -- -- 43
2017-08-18 11:00:00 29.3 4 Sudeste 9 Este 0 -- -- 46
2017-08-18 10:00:00 26.5 3 Sudeste 6 Este 0 -- -- 53
2017-08-18 09:00:00 21.4 0 Calma 4 Noroeste 0 -- -- 74
2017-08-18 08:00:00 17.9 0 Calma 7 Sudeste 0 -- -- 84
2017-08-18 07:00:00 18.1 0 Calma 4 Sudoeste 0 -- -- 81
2017-08-18 06:00:00 18.6 0 Calma 4 Noroeste 0 -- -- 82
2017-08-18 05:00:00 18.9 0 Calma 6 Nordeste 0 -- -- 82
2017-08-18 04:00:00 19.9 0 Calma -- -- 0 -- -- 79
2017-08-18 03:00:00 20.8 0 Calma 4 Oeste 0 -- -- 74
2017-08-18 02:00:00 21.3 0 Calma 4 Noroeste 0 -- -- 72
2017-08-18 01:00:00 22.8 0 Calma 2 Norte 0 -- -- 67
2017-08-18 00:00:00 24.2 0 Calma 9 Sudeste 0 -- -- 62
2017-08-17 23:00:00 26 5 Sudeste 13 Este 0 -- -- 56
2017-08-17 22:00:00 25.8 3 Sudeste 8 Sudeste 0 -- -- 52
2017-08-17 21:00:00 28.8 0 Calma 10 Sudeste 0 -- -- 45
2017-08-17 20:00:00 32.4 4 Sudeste 15 Sudeste 0 -- -- 34
2017-08-17 19:00:00 34.4 8 Sur 17 Sur 0 -- -- 26
2017-08-17 18:00:00 34.9 7 Sur 15 Sur 0 -- -- 29
2017-08-17 17:00:00 34.3 7 Sudeste 19 Sur 0 -- -- 28
2017-08-17 16:00:00 33.2 8 Sudeste 15 Sur 0 -- -- 32
2017-08-17 15:00:00 32.2 7 Sur 19 Sur 0 -- -- 33
2017-08-17 14:00:00 30.2 9 Sur 19 Sur 0 -- -- 39
2017-08-17 13:00:00 29 8 Sudeste 22 Sur 0 -- -- 43
2017-08-17 12:00:00 28 8 Sudeste 16 Sudeste 0 -- -- 45
2017-08-17 11:00:00 26.9 6 Sudeste 12 Sudeste 0 -- -- 58
2017-08-17 10:00:00 25.2 3 Sudeste 5 Sudeste 0 -- -- 59
2017-08-17 09:00:00 20.5 0 Calma 6 Noroeste 0 -- -- 78
2017-08-17 08:00:00 16.8 0 Calma 2 Oeste 0 -- -- 89
2017-08-17 07:00:00 16.6 0 Calma 4 Noroeste 0 -- -- 87
2017-08-17 06:00:00 17 0 Calma 3 Oeste 0 -- -- 85
2017-08-17 05:00:00 17.8 0 Calma 4 Noroeste 0 -- -- 82
2017-08-17 04:00:00 18.7 2 Noroeste 5 Noroeste 0 -- -- 80
2017-08-17 03:00:00 19.1 0 Calma 5 Noroeste 0 -- -- 76
2017-08-17 02:00:00 19.6 0 Calma 4 Noroeste 0 -- -- 75
2017-08-17 01:00:00 20.7 0 Calma 5 Oeste 0 -- -- 73
2017-08-17 00:00:00 21.6 0 Calma 5 Oeste 0 -- -- 71
2017-08-16 23:00:00 23.3 0 Calma 5 Nordeste 0 -- -- 70
2017-08-16 22:00:00 25.7 0 Calma 10 Oeste 0 -- -- 62
2017-08-16 21:00:00 28.8 0 Calma 13 Sur 0 -- -- 54
2017-08-16 20:00:00 31.6 4 Sur 12 Sudeste 0 -- -- 46
2017-08-16 19:00:00 33.1 4 Sur 12 Sudeste 0 -- -- 41
2017-08-16 18:00:00 32.6 5 Sudeste 18 Sudeste 0 -- -- 43
2017-08-16 17:00:00 31.6 9 Sudeste 19 Sudeste 0 -- -- 46
2017-08-16 16:00:00 31.3 7 Este 18 Sur 0 -- -- 45
2017-08-16 15:00:00 30.6 7 Sudeste 20 Sudeste 0 -- -- 47
2017-08-16 14:00:00 29.4 9 Sudeste 18 Sudeste 0 -- -- 55
2017-08-16 13:00:00 28.5 6 Sudeste 19 Sudeste 0 -- -- 57
2017-08-16 12:00:00 27.6 8 Este 19 Nordeste 0 -- -- 58
2017-08-16 11:00:00 26.2 4 Sudeste 10 Este 0 -- -- 56
2017-08-16 10:00:00 23.5 0 Calma 2 Sur 0 -- -- 67
2017-08-16 09:00:00 19.9 0 Calma -- -- 0 -- -- 88
2017-08-16 08:00:00 18 0 Calma -- -- 0 -- -- 90
2017-08-16 07:00:00 17.7 0 Calma -- -- 0 -- -- 89
2017-08-16 06:00:00 17.6 0 Calma -- -- 0 -- -- 88
2017-08-16 05:00:00 17.5 0 Calma -- -- 0 -- -- 87
2017-08-16 04:00:00 18 0 Calma 2 Norte 0 -- -- 85
2017-08-16 03:00:00 18.5 0 Calma 3 Oeste 0 -- -- 84
2017-08-16 02:00:00 19.2 0 Calma 3 Noroeste 0 -- -- 82
2017-08-16 01:00:00 20.4 3 Noroeste 10 Noroeste 0 -- -- 80
2017-08-16 00:00:00 21.1 2 Oeste 11 Noroeste 0 -- -- 76
2017-08-15 23:00:00 22.3 2 Norte 10 Oeste 0 -- -- 76
2017-08-15 22:00:00 24.1 0 Calma 17 Nordeste 0.2 -- -- 74
2017-08-15 21:00:00 26.6 9 Norte 29 Oeste 0.2 -- -- 67
2017-08-15 20:00:00 28.6 8 Sudeste 15 Sudeste 0 -- -- 50
2017-08-15 19:00:00 30.2 9 Sudeste 22 Sudeste 0 -- -- 45
2017-08-15 18:00:00 33.2 9 Sudeste 22 Sudeste 0 -- -- 37
2017-08-15 17:00:00 32.8 12 Sudeste 21 Sur 0 -- -- 35
2017-08-15 16:00:00 32.3 10 Sudeste 23 Sudeste 0 -- -- 32
2017-08-15 15:00:00 30.9 10 Sudeste 24 Sudeste 0 -- -- 33
2017-08-15 14:00:00 31 13 Sudeste 29 Sur 0 -- -- 29
2017-08-15 13:00:00 30.7 8 Sudeste 17 Sudeste 0 -- -- 35
2017-08-15 12:00:00 28.7 5 Sudeste 10 Sudeste 0 -- -- 36
2017-08-15 11:00:00 24.1 3 Sudeste 9 Sudoeste 0 -- -- 60
2017-08-15 10:00:00 24.6 0 Calma 6 Sudoeste 0 -- -- 49
2017-08-15 09:00:00 19.4 3 Noroeste 6 Noroeste 0 -- -- 62
2017-08-15 08:00:00 14.4 0 Calma 4 Norte 0 -- -- 82
2017-08-15 07:00:00 14.1 0 Calma 6 Noroeste 0 -- -- 82
2017-08-15 06:00:00 14.3 0 Calma 5 Oeste 0 -- -- 80
2017-08-15 05:00:00 14.9 0 Calma 3 Noroeste 0 -- -- 79
2017-08-15 04:00:00 15.6 0 Calma 2 Norte 0 -- -- 75
2017-08-15 03:00:00 16.4 0 Calma 6 Nordeste 0 -- -- 74
2017-08-15 02:00:00 17 0 Calma 4 Este 0 -- -- 73
2017-08-15 01:00:00 18.5 0 Calma 6 Noroeste 0 -- -- 67
2017-08-15 00:00:00 20.5 0 Calma 6 Noroeste 0 -- -- 62
2017-08-14 23:00:00 22.1 2 Nordeste 5 Nordeste 0 -- -- 56
2017-08-14 22:00:00 24.9 0 Calma 17 Sudeste 0 -- -- 48
2017-08-14 21:00:00 26.9 7 Sudeste 22 Este 0 -- -- 42
2017-08-14 20:00:00 29.6 9 Sudeste 26 Sudeste 0 -- -- 41
2017-08-14 19:00:00 32.4 10 Sudeste 23 Sudeste 0 -- -- 33
2017-08-14 18:00:00 33.4 10 Sudeste 21 Sudeste 0 -- -- 28
2017-08-14 17:00:00 33.1 11 Este 20 Este 0 -- -- 29
2017-08-14 16:00:00 32.8 9 Sudeste 21 Este 0 -- -- 31
2017-08-14 15:00:00 32.2 8 Sudeste 22 Este 0 -- -- 31
2017-08-14 14:00:00 31.2 11 Sudeste 22 Sudeste 0 -- -- 28
2017-08-14 13:00:00 30.2 11 Sudeste 22 Sudeste 0 -- -- 32
2017-08-14 12:00:00 29.2 6 Sudeste 19 Sudeste 0 -- -- 35
2017-08-14 11:00:00 27.5 5 Sudeste 10 Sur 0 -- -- 43
2017-08-14 10:00:00 24.9 4 Sudeste 8 Sudeste 0 -- -- 54
2017-08-14 09:00:00 19.3 0 Calma 4 Este 0 -- -- 77
2017-08-14 08:00:00 14.6 2 Sur 6 Este 0 -- -- 89
2017-08-14 07:00:00 14.9 0 Calma 5 Norte 0 -- -- 84
2017-08-14 06:00:00 15.5 0 Calma 6 Oeste 0 -- -- 83
2017-08-14 05:00:00 15.9 0 Calma 5 Noroeste 0 -- -- 82
2017-08-14 04:00:00 16.4 0 Calma 4 Sudeste 0 -- -- 78
2017-08-14 03:00:00 17.4 0 Calma 3 Oeste 0 -- -- 74
2017-08-14 02:00:00 18.7 2 Noroeste 4 Sudoeste 0 -- -- 71
2017-08-14 01:00:00 20.6 3 Oeste 10 Este 0 -- -- 66
2017-08-14 00:00:00 21.5 0 Calma 8 Sudeste 0 -- -- 66
2017-08-13 23:00:00 22.4 2 Sur 7 Sudeste 0 -- -- 62
2017-08-13 22:00:00 24.8 4 Este 10 Sudeste 0 -- -- 54
2017-08-13 21:00:00 26.8 5 Sudeste 14 Sudeste 0 -- -- 45
2017-08-13 20:00:00 29.7 5 Sudeste 16 Sudeste 0 -- -- 33
2017-08-13 19:00:00 31.4 6 Sudeste 16 Sudeste 0 -- -- 29
2017-08-13 18:00:00 31.9 9 Sur 19 Sudeste 0 -- -- 27
2017-08-13 17:00:00 31.6 8 Sudeste 17 Sudeste 0 -- -- 30
2017-08-13 16:00:00 31 8 Sudeste 21 Sur 0 -- -- 30
2017-08-13 15:00:00 30.4 8 Sur 20 Sur 0 -- -- 33
2017-08-13 14:00:00 29.3 8 Sudeste 19 Sudeste 0 -- -- 41
2017-08-13 13:00:00 27.8 8 Sudeste 17 Sudeste 0 -- -- 45
2017-08-13 12:00:00 26.1 7 Sudeste 15 Sudeste 0 -- -- 47
2017-08-13 11:00:00 25.2 5 Este 10 Este 0 -- -- 47
2017-08-13 10:00:00 23 0 Calma 5 Este 0 -- -- 49
2017-08-13 09:00:00 18.6 2 Noroeste 5 Noroeste 0 -- -- 61
2017-08-13 08:00:00 12.7 0 Calma 3 Oeste 0 -- -- 81
2017-08-13 07:00:00 12.6 0 Calma 2 Sudoeste 0 -- -- 79
2017-08-13 06:00:00 13.1 0 Calma -- -- 0 -- -- 76
2017-08-13 05:00:00 13.6 0 Calma 2 Oeste 0 -- -- 74
2017-08-13 04:00:00 14.3 0 Calma 4 Oeste 0 -- -- 72
2017-08-13 03:00:00 14.9 0 Calma 5 Oeste 0 -- -- 69
2017-08-13 02:00:00 15.8 0 Calma 4 Noroeste 0 -- -- 66
2017-08-13 01:00:00 16.8 0 Calma 4 Noroeste 0 -- -- 64
2017-08-13 00:00:00 18 0 Calma 5 Noroeste 0 -- -- 59
2017-08-12 23:00:00 19.9 0 Calma 0 Calma 0 -- -- 59
2017-08-12 22:00:00 22.1 0 Calma -- -- 0 -- -- 51
2017-08-12 21:00:00 24.5 0 Calma 9 Sudeste 0 -- -- 45
2017-08-12 20:00:00 27.7 4 Sudeste 11 Sudeste 0 -- -- 34
2017-08-12 19:00:00 29.1 6 Sudeste 16 Sur 0 -- -- 31
2017-08-12 18:00:00 29.3 7 Sudeste 20 Sur 0 -- -- 30
2017-08-12 17:00:00 28.9 10 Sur 26 Sur 0 -- -- 33
2017-08-12 16:00:00 28.2 10 Sudeste 26 Sur 0 -- -- 34
2017-08-12 15:00:00 27.5 12 Sur 23 Sudeste 0 -- -- 37
2017-08-12 14:00:00 26.7 4 Sudeste 21 Sur 0 -- -- 37
2017-08-12 13:00:00 25.6 6 Sur 14 Sur 0 -- -- 41
2017-08-12 12:00:00 23.7 6 Sudeste 17 Sudeste 0 -- -- 49
2017-08-12 11:00:00 22.6 5 Sudeste 12 Sudeste 0 -- -- 49
2017-08-12 10:00:00 20.9 4 Sur 6 Sur 0 -- -- 51
2017-08-12 09:00:00 16.5 0 Calma 6 Noroeste 0 -- -- 68
2017-08-12 08:00:00 10.8 0 Calma 5 Norte 0 -- -- 85
2017-08-12 07:00:00 10.4 0 Calma 3 Noroeste 0 -- -- 84
2017-08-12 06:00:00 11.1 0 Calma 4 Oeste 0 -- -- 79
2017-08-12 05:00:00 11.8 0 Calma 5 Noroeste 0 -- -- 76
2017-08-12 04:00:00 12.6 2 Oeste 5 Oeste 0 -- -- 75
2017-08-12 03:00:00 12.6 0 Calma 5 Sudeste 0 -- -- 72
2017-08-12 02:00:00 13.1 0 Calma 4 Noroeste 0 -- -- 71
2017-08-12 01:00:00 14.3 0 Calma 3 Nordeste 0 -- -- 64
2017-08-12 00:00:00 16 0 Calma 5 Nordeste 0 -- -- 62
2017-08-11 23:00:00 18.4 3 Sudeste 12 Sur 0 -- -- 54
2017-08-11 22:00:00 21.1 5 Este 21 Sudoeste 0 -- -- 45
2017-08-11 21:00:00 23.3 9 Sudoeste 27 Sudoeste 0 -- -- 38
2017-08-11 20:00:00 25.8 8 Sur 33 Sudoeste 0 -- -- 33
2017-08-11 19:00:00 27.5 12 Sur 33 Sur 0 -- -- 29
2017-08-11 18:00:00 27.9 14 Sur 27 Sur 0 -- -- 28
2017-08-11 17:00:00 27.6 12 Sur 24 Sudeste 0 -- -- 28
2017-08-11 16:00:00 27.2 9 Sur 21 Sudoeste 0 -- -- 27
2017-08-11 15:00:00 25.9 7 Sudeste 20 Sudoeste 0 -- -- 30
2017-08-11 14:00:00 24.6 5 Sur 20 Sudoeste 0 -- -- 33
2017-08-11 13:00:00 22.9 7 Este 19 Sudeste 0 -- -- 37
2017-08-11 12:00:00 21.2 7 Sudeste 15 Sudeste 0 -- -- 44
2017-08-11 11:00:00 19.5 6 Sudeste 11 Sur 0 -- -- 47
2017-08-11 10:00:00 17.4 4 Sudeste 10 Sudeste 0 -- -- 55
2017-08-11 09:00:00 14.7 3 Norte 8 Noroeste 0 -- -- 64
2017-08-11 08:00:00 9.4 0 Calma 4 Oeste 0 -- -- 83
2017-08-11 07:00:00 9.4 2 Sudeste 6 Sudeste 0 -- -- 82
2017-08-11 06:00:00 10.4 0 Calma 8 Sudeste 0 -- -- 75
2017-08-11 05:00:00 11.5 0 Calma 5 Norte 0 -- -- 71
2017-08-11 04:00:00 12.8 2 Sudoeste 11 Sudoeste 0 -- -- 65
2017-08-11 03:00:00 14.9 4 Sudeste 20 Oeste 0 -- -- 56
2017-08-11 02:00:00 15.2 9 Oeste 22 Oeste 0 -- -- 53
2017-08-11 01:00:00 15.4 0 Calma 14 Oeste 0 -- -- 55
2017-08-11 00:00:00 17 4 Noroeste 9 Noroeste 0 -- -- 49
2017-08-10 23:00:00 18.9 5 Noroeste 22 Sudoeste 0 -- -- 42
2017-08-10 22:00:00 20.5 7 Oeste 26 Oeste 0 -- -- 40
2017-08-10 21:00:00 22.7 12 Oeste 32 Noroeste 0 -- -- 37
2017-08-10 20:00:00 24.7 12 Oeste 41 Sudoeste 0 -- -- 35
2017-08-10 19:00:00 26.7 18 Oeste 51 Sudoeste 0 -- -- 31
2017-08-10 18:00:00 26.1 12 Oeste 40 Oeste 0 -- -- 32
2017-08-10 17:00:00 27 14 Oeste 39 Sudoeste 0 -- -- 31
2017-08-10 16:00:00 26.6 15 Sudoeste 39 Oeste 0 -- -- 32
2017-08-10 15:00:00 26.4 15 Sur 31 Sur 0 -- -- 36
2017-08-10 14:00:00 26 5 Sur 15 Sur 0 -- -- 32
2017-08-10 13:00:00 23.4 6 Sur 17 Sur 0 -- -- 35
2017-08-10 12:00:00 21.2 7 Este 15 Este 0 -- -- 43
2017-08-10 11:00:00 18.8 4 Este 10 Sudoeste 0 -- -- 56
2017-08-10 10:00:00 16.7 4 Sudeste 7 Sudeste 0 -- -- 69
2017-08-10 09:00:00 12.8 0 Calma 6 Oeste 0 -- -- 75
2017-08-10 08:00:00 7.7 0 Calma 6 Noroeste 0 -- -- 93
2017-08-10 07:00:00 7.5 0 Calma 5 Oeste 0 -- -- 90
2017-08-10 06:00:00 8.3 0 Calma 4 Oeste 0 -- -- 91
2017-08-10 05:00:00 9 0 Calma 6 Noroeste 0 -- -- 91
2017-08-10 04:00:00 10.4 0 Calma 3 Norte 0 -- -- 90
2017-08-10 03:00:00 11.8 0 Calma 8 Noroeste 0 -- -- 89
2017-08-10 02:00:00 12.7 4 Norte 10 Noroeste 0 -- -- 90
2017-08-10 01:00:00 12.3 0 Calma 5 Noroeste 0 -- -- 90
2017-08-10 00:00:00 13.4 0 Calma 0 Calma 0 -- -- 88
2017-08-09 23:00:00 14.7 0 Calma 10 Nordeste 0 -- -- 87
2017-08-09 22:00:00 15.9 5 Nordeste 10 Este 0 -- -- 86
2017-08-09 21:00:00 16.3 3 Este 13 Este 0 -- -- 87
2017-08-09 20:00:00 16.4 5 Este 13 Sudeste 0 -- -- 85
2017-08-09 19:00:00 17.2 6 Sudeste 14 Sudeste 0.2 -- -- 85
2017-08-09 18:00:00 18.8 7 Sudeste 21 Sur 0 -- -- 78
2017-08-09 17:00:00 21.8 6 Este 12 Este 0 -- -- 53
2017-08-09 16:00:00 22.4 5 Norte 10 Norte 0 -- -- 48
2017-08-09 15:00:00 21 4 Sudeste 13 Este 0 -- -- 53
2017-08-09 14:00:00 20.9 5 Sudeste 13 Sudeste 0 -- -- 53
2017-08-09 13:00:00 20.5 4 Sudeste 12 Sudeste 0 -- -- 52
2017-08-09 12:00:00 20 7 Sudeste 15 Este 0 -- -- 54
2017-08-09 11:00:00 19.4 5 Este 12 Este 0 -- -- 54
2017-08-09 10:00:00 17.9 3 Sudeste 8 Este 0 -- -- 58
2017-08-09 09:00:00 16.2 3 Sudeste 5 Sudeste 0 -- -- 65
2017-08-09 08:00:00 12.7 0 Calma 4 Sudoeste 0 -- -- 80
2017-08-09 07:00:00 11.5 0 Calma 6 Nordeste 0 -- -- 82
2017-08-09 06:00:00 11.7 5 Sudeste 10 Este 0 -- -- 81
2017-08-09 05:00:00 11.9 0 Calma 6 Oeste 0 -- -- 79
2017-08-09 04:00:00 12.6 3 Noroeste 9 Noroeste 0 -- -- 76
2017-08-09 03:00:00 13.5 2 Noroeste 6 Noroeste 0 -- -- 74
2017-08-09 02:00:00 14.6 0 Calma 8 Sudoeste 0 -- -- 68
2017-08-09 01:00:00 15.6 5 Este 9 Este 0 -- -- 65
2017-08-09 00:00:00 17.1 2 Este 6 Nordeste 0 -- -- 59
2017-08-08 23:00:00 19.9 2 Este 16 Oeste 0 -- -- 48
2017-08-08 22:00:00 21.9 9 Oeste 30 Sudoeste 0 -- -- 42
2017-08-08 21:00:00 23.9 8 Oeste 35 Oeste 0 -- -- 37
2017-08-08 20:00:00 26.1 17 Oeste 38 Sudoeste 0 -- -- 31
2017-08-08 19:00:00 29 14 Oeste 41 Oeste 0 -- -- 25
2017-08-08 18:00:00 30.5 14 Oeste 39 Oeste 0 -- -- 21
2017-08-08 17:00:00 31.3 12 Oeste 39 Oeste 0 -- -- 21
2017-08-08 16:00:00 31.6 13 Oeste 34 Oeste 0 -- -- 23
2017-08-08 15:00:00 30.6 17 Sudoeste 37 Sudoeste 0 -- -- 23
2017-08-08 14:00:00 30.2 12 Sudoeste 37 Sur 0 -- -- 29
2017-08-08 13:00:00 29.2 13 Sudoeste 33 Sudoeste 0 -- -- 35
2017-08-08 12:00:00 28.4 11 Oeste 32 Sudoeste 0 -- -- 39
2017-08-08 11:00:00 26.9 17 Oeste 33 Oeste 0 -- -- 42
2017-08-08 10:00:00 25.2 17 Oeste 33 Oeste 0 -- -- 47
2017-08-08 09:00:00 22.1 16 Oeste 28 Oeste 0 -- -- 55
2017-08-08 08:00:00 22.5 3 Norte 16 Sudoeste 0 -- -- 64
2017-08-08 07:00:00 23.1 6 Sudoeste 13 Sudoeste 0 -- -- 78
2017-08-08 06:00:00 23.2 0 Calma 5 Sudoeste 0 -- -- 78
2017-08-08 05:00:00 23.8 3 Oeste 9 Oeste 0 -- -- 73
2017-08-08 04:00:00 23.6 5 Oeste 16 Sudoeste 0 -- -- 72
2017-08-08 03:00:00 22.6 0 Calma 4 Oeste 0 -- -- 76
2017-08-08 02:00:00 23.3 3 Noroeste 6 Norte 0 -- -- 73
2017-08-08 01:00:00 24.4 2 Sudeste 14 Este 0 -- -- 68
2017-08-08 00:00:00 24.9 8 Este 17 Este 0 -- -- 68
2017-08-07 23:00:00 25.2 4 Sudeste 12 Este 0 -- -- 69
2017-08-07 22:00:00 26.1 4 Sudeste 17 Sudeste 0 -- -- 66
2017-08-07 21:00:00 27.5 9 Sudeste 26 Sudeste 0 -- -- 61
2017-08-07 20:00:00 29.3 10 Sudeste 26 Sudeste 0 -- -- 56
2017-08-07 19:00:00 31.2 10 Sudeste 25 Sudeste 0 -- -- 49
2017-08-07 18:00:00 32.6 10 Sudeste 23 Sur 0 -- -- 45
2017-08-07 17:00:00 32.7 8 Sudeste 19 Sur 0 -- -- 45
2017-08-07 16:00:00 32.3 8 Sudeste 21 Nordeste 0 -- -- 47
2017-08-07 15:00:00 31.1 6 Sudeste 13 Sudeste 0 -- -- 49
2017-08-07 14:00:00 28.7 3 Nordeste 14 Noroeste 0 -- -- 56
2017-08-07 13:00:00 27.1 6 Nordeste 20 Nordeste 0 -- -- 63
2017-08-07 12:00:00 26.4 9 Nordeste 19 Nordeste 0 -- -- 67
2017-08-07 11:00:00 25.2 5 Este 12 Este 0 -- -- 70
2017-08-07 10:00:00 24.5 3 Sudeste 8 Este 0 -- -- 73
2017-08-07 09:00:00 23.1 2 Sudeste 5 Sudeste 0 -- -- 77
2017-08-07 08:00:00 20.4 0 Calma 4 Este 0 -- -- 86
2017-08-07 07:00:00 19.9 0 Calma 5 Sudeste 0 -- -- 86
2017-08-07 06:00:00 20.5 0 Calma 4 Norte 0 -- -- 84
2017-08-07 05:00:00 21.3 0 Calma 4 Noroeste 0 -- -- 79
2017-08-07 04:00:00 21 0 Calma 4 Sudoeste 0 -- -- 80
2017-08-07 03:00:00 21.5 0 Calma 4 Este 0 -- -- 78
2017-08-07 02:00:00 21.8 2 Oeste 5 Noroeste 0 -- -- 76
2017-08-07 01:00:00 22 0 Calma 4 Norte 0 -- -- 74
2017-08-07 00:00:00 22.5 0 Calma 5 Nordeste 0 -- -- 70
2017-08-06 23:00:00 23.3 0 Calma 4 Sur 0 -- -- 65
2017-08-06 22:00:00 25.3 0 Calma 3 Este 0 -- -- 61
2017-08-06 21:00:00 27.7 0 Calma 9 Sudeste 0 -- -- 56
2017-08-06 20:00:00 29.7 5 Sudeste 14 Sur 0 -- -- 46
2017-08-06 19:00:00 30.9 5 Sudeste 14 Sudeste 0 -- -- 41
2017-08-06 18:00:00 30.9 7 Sur 16 Sur 0 -- -- 42
2017-08-06 17:00:00 30.9 7 Sur 19 Sur 0 -- -- 43
2017-08-06 16:00:00 30.1 7 Este 16 Sudeste 0 -- -- 45
2017-08-06 15:00:00 29.2 4 Sur 13 Sur 0 -- -- 47
2017-08-06 14:00:00 27.1 7 Nordeste 13 Sudeste 0 -- -- 52
2017-08-06 13:00:00 25.5 5 Este 14 Este 0 -- -- 57
2017-08-06 12:00:00 23.6 4 Sudeste 10 Sudeste 0 -- -- 61
2017-08-06 11:00:00 22.6 4 Este 13 Sur 0 -- -- 65
2017-08-06 10:00:00 20.7 6 Sudeste 13 Sur 0 -- -- 71
2017-08-06 09:00:00 19.5 5 Sudeste 13 Sudeste 0 -- -- 75
2017-08-06 08:00:00 18.7 0 Calma 6 Este 0 -- -- 79
2017-08-06 07:00:00 18.4 3 Sudeste 8 Sudoeste 0 -- -- 79
2017-08-06 06:00:00 19 4 Sudoeste 10 Sudoeste 0 -- -- 76
2017-08-06 05:00:00 19.4 0 Calma 9 Sudeste 0 -- -- 76
2017-08-06 04:00:00 19.7 6 Sudoeste 22 Sudoeste 0 -- -- 73
2017-08-06 03:00:00 21.5 6 Sur 14 Sur 0 -- -- 67
2017-08-06 02:00:00 23 2 Sudeste 19 Sudoeste 0 -- -- 66
2017-08-06 01:00:00 24.2 5 Oeste 15 Sur 0 -- -- 60
2017-08-06 00:00:00 26.5 2 Este 8 Sur 0 -- -- 60
2017-08-05 23:00:00 27.3 4 Este 7 Nordeste 0 -- -- 56
2017-08-05 22:00:00 29.6 0 Calma 11 Sudoeste 0 -- -- 50
2017-08-05 21:00:00 32.3 3 Sur 22 Sur 0 -- -- 44
2017-08-05 20:00:00 34.6 6 Sur 12 Sudeste 0 -- -- 39
2017-08-05 19:00:00 35.8 6 Sur 16 Sur 0 -- -- 37
2017-08-05 18:00:00 36.3 9 Sur 22 Sur 0 -- -- 35
2017-08-05 17:00:00 36.6 7 Sudeste 20 Sudoeste 0 -- -- 36
2017-08-05 16:00:00 36.2 6 Sudeste 21 Sur 0 -- -- 36
2017-08-05 15:00:00 35 7 Sudeste 17 Sur 0 -- -- 38
2017-08-05 14:00:00 33.6 10 Sur 22 Sur 0 -- -- 43
2017-08-05 13:00:00 32.5 9 Sudeste 19 Sudeste 0 -- -- 44
2017-08-05 12:00:00 31.3 10 Sudeste 22 Sudeste 0 -- -- 46
2017-08-05 11:00:00 30.1 5 Sudeste 13 Sudeste 0 -- -- 50
2017-08-05 10:00:00 28.4 2 Este 5 Este 0 -- -- 54
2017-08-05 09:00:00 24.8 0 Calma 2 Sudeste 0 -- -- 62
2017-08-05 08:00:00 20.3 0 Calma 0 Calma 0 -- -- 80
2017-08-05 07:00:00 19.4 0 Calma 4 Noroeste 0 -- -- 77
2017-08-05 06:00:00 19.6 0 Calma 4 Oeste 0 -- -- 76
2017-08-05 05:00:00 20.3 0 Calma 3 Oeste 0 -- -- 74
2017-08-05 04:00:00 21.3 0 Calma 5 Noroeste 0 -- -- 68
2017-08-05 03:00:00 21.8 3 Noroeste 6 Noroeste 0 -- -- 67
2017-08-05 02:00:00 22.2 0 Calma 4 Noroeste 0 -- -- 65
2017-08-05 01:00:00 23.3 0 Calma 2 Norte 0 -- -- 63
2017-08-05 00:00:00 24.8 0 Calma 6 Noroeste 0 -- -- 58
2017-08-04 23:00:00 26.3 0 Calma 5 Sur 0 -- -- 54
2017-08-04 22:00:00 29.3 0 Calma 5 Oeste 0 -- -- 46
2017-08-04 21:00:00 33.3 4 Sudeste 15 Sudeste 0 -- -- 36
2017-08-04 20:00:00 36.3 8 Sur 27 Sudoeste 0 -- -- 27
2017-08-04 19:00:00 37.6 11 Sudoeste 29 Sur 0 -- -- 26
2017-08-04 18:00:00 37.7 11 Sur 23 Sur 0 -- -- 28
2017-08-04 17:00:00 38 9 Sur 23 Sur 0 -- -- 28
2017-08-04 16:00:00 36.7 12 Sur 19 Sur 0 -- -- 29
2017-08-04 15:00:00 35.9 6 Sudoeste 21 Este 0 -- -- 33
2017-08-04 14:00:00 35 10 Sur 19 Sudoeste 0 -- -- 34
2017-08-04 13:00:00 34.4 8 Sur 17 Sur 0 -- -- 33
2017-08-04 12:00:00 33.5 5 Sudeste 13 Este 0 -- -- 34
2017-08-04 11:00:00 31.6 5 Sudeste 10 Sur 0 -- -- 39
2017-08-04 10:00:00 29.4 2 Sudeste 5 Este 0 -- -- 42
2017-08-04 09:00:00 25.1 0 Calma 6 Noroeste 0 -- -- 60
2017-08-04 08:00:00 20.7 0 Calma 4 Noroeste 0 -- -- 71
2017-08-04 07:00:00 20.1 0 Calma 6 Noroeste 0 -- -- 70
2017-08-04 06:00:00 20.4 2 Noroeste 5 Norte 0 -- -- 68
2017-08-04 05:00:00 20.4 2 Noroeste 6 Noroeste 0 -- -- 68
2017-08-04 04:00:00 20.7 2 Oeste 6 Noroeste 0 -- -- 66
2017-08-04 03:00:00 21.2 0 Calma 6 Noroeste 0 -- -- 64
2017-08-04 02:00:00 22.1 0 Calma 6 Noroeste 0 -- -- 62
2017-08-04 01:00:00 23.1 0 Calma 8 Noroeste 0 -- -- 58
2017-08-04 00:00:00 23.5 0 Calma 5 Oeste 0 -- -- 59
2017-08-03 23:00:00 25.5 0 Calma 3 Este 0 -- -- 53
2017-08-03 22:00:00 28.7 0 Calma 4 Nordeste 0 -- -- 47
2017-08-03 21:00:00 32.5 0 Calma 6 Sudeste 0 -- -- 42
2017-08-03 20:00:00 36.5 6 Sur 17 Sur 0 -- -- 27
2017-08-03 19:00:00 38.2 8 Sur 18 Sur 0 -- -- 23
2017-08-03 18:00:00 38.3 8 Sur 23 Sur 0 -- -- 22
2017-08-03 17:00:00 38.2 11 Sur 23 Este 0 -- -- 25
2017-08-03 16:00:00 37.8 12 Sur 22 Sur 0 -- -- 28
2017-08-03 15:00:00 37.2 6 Sudeste 17 Sur 0 -- -- 28
2017-08-03 14:00:00 36.2 9 Sur 19 Este 0 -- -- 30
2017-08-03 13:00:00 35.7 7 Sur 15 Sur 0 -- -- 32
2017-08-03 12:00:00 35 3 Norte 9 Oeste 0 -- -- 30
2017-08-03 11:00:00 33.5 3 Noroeste 7 Norte 0 -- -- 33
2017-08-03 10:00:00 30.6 3 Sudeste 11 Noroeste 0 -- -- 43
2017-08-03 09:00:00 25.9 2 Noroeste 9 Norte 0 -- -- 53
2017-08-03 08:00:00 21.2 2 Noroeste 6 Noroeste 0 -- -- 69
2017-08-03 07:00:00 20.3 0 Calma 5 Norte 0 -- -- 71
2017-08-03 06:00:00 20.7 0 Calma 4 Oeste 0 -- -- 71
2017-08-03 05:00:00 21.5 0 Calma 7 Norte 0 -- -- 68
2017-08-03 04:00:00 21.5 3 Noroeste 6 Sudoeste 0 -- -- 69
2017-08-03 03:00:00 21.9 0 Calma 5 Noroeste 0 -- -- 69
2017-08-03 02:00:00 23.2 0 Calma 5 Noroeste 0 -- -- 65
2017-08-03 01:00:00 24.8 2 Noroeste 5 Noroeste 0 -- -- 64
2017-08-03 00:00:00 26.8 0 Calma 8 Este 0 -- -- 58
2017-08-02 23:00:00 28.1 4 Sudeste 8 Este 0 -- -- 54
2017-08-02 22:00:00 28.7 0 Calma 7 Sudeste 0 -- -- 50
2017-08-02 21:00:00 29.8 0 Calma 6 Sudeste 0 -- -- 48
2017-08-02 20:00:00 32.9 2 Sudeste 12 Sur 0 -- -- 36
2017-08-02 19:00:00 33.9 7 Sudeste 19 Sur 0 -- -- 29
2017-08-02 18:00:00 34.8 6 Sudeste 16 Este 0 -- -- 28
2017-08-02 17:00:00 35.5 11 Sudeste 23 Sur 0 -- -- 26
2017-08-02 16:00:00 35.9 15 Sur 30 Sur 0 -- -- 26
2017-08-02 15:00:00 36 10 Oeste 24 Sur 0 -- -- 27
2017-08-02 14:00:00 33.4 14 Sur 26 Sur 0 -- -- 38
2017-08-02 13:00:00 33.5 9 Sur 18 Sur 0 -- -- 41
2017-08-02 12:00:00 33 6 Nordeste 13 Sudeste 0 -- -- 40
2017-08-02 11:00:00 31.2 2 Sur 10 Norte 0 -- -- 40
2017-08-02 10:00:00 27.7 4 Nordeste 8 Norte 0 -- -- 53
2017-08-02 09:00:00 24.6 0 Calma 10 Noroeste 0 -- -- 70
2017-08-02 08:00:00 21.3 3 Noroeste 12 Noroeste 0 -- -- 76
2017-08-02 07:00:00 19.8 2 Oeste 6 Oeste 0 -- -- 77
2017-08-02 06:00:00 19.9 2 Noroeste 8 Sudoeste 0 -- -- 79
2017-08-02 05:00:00 20.3 0 Calma 4 Noroeste 0 -- -- 78
2017-08-02 04:00:00 20.4 0 Calma 7 Noroeste 0 -- -- 78
2017-08-02 03:00:00 21 2 Noroeste 9 Noroeste 0 -- -- 74
2017-08-02 02:00:00 20.8 4 Noroeste 7 Noroeste 0 -- -- 76
2017-08-02 01:00:00 21.6 0 Calma 8 Noroeste 0 -- -- 74
2017-08-02 00:00:00 22.5 0 Calma 4 Nordeste 0 -- -- 70
2017-08-01 23:00:00 24.1 0 Calma 6 Sudeste 0 -- -- 63
2017-08-01 22:00:00 25.9 4 Sudeste 8 Sudeste 0 -- -- 59
2017-08-01 21:00:00 28.2 4 Sudeste 18 Sudeste 0 -- -- 50
2017-08-01 20:00:00 29.9 9 Sudeste 20 Sudeste 0 -- -- 45
2017-08-01 19:00:00 30.9 9 Sudeste 23 Sur 0 -- -- 46
2017-08-01 18:00:00 31.2 7 Sudeste 15 Sur 0 -- -- 50
2017-08-01 17:00:00 29.5 8 Sudeste 21 Este 0 -- -- 54
2017-08-01 16:00:00 29.8 4 Sudeste 10 Sudeste 0 -- -- 51
2017-08-01 15:00:00 28.9 4 Sudeste 9 Sur 0 -- -- 54
2017-08-01 14:00:00 28.1 4 Sudeste 14 Este 0 -- -- 58
2017-08-01 13:00:00 27.6 6 Este 21 Sudeste 0 -- -- 62
2017-08-01 12:00:00 29.4 8 Sudeste 17 Sudeste 0 -- -- 57
2017-08-01 11:00:00 28.1 6 Sudeste 15 Sudeste 0 -- -- 64
2017-08-01 10:00:00 25.7 0 Calma 5 Sudeste 0 -- -- 73
2017-08-01 09:00:00 22.1 0 Calma 6 Norte 0 -- -- 90
2017-08-01 08:00:00 20.4 0 Calma 4 Norte 0 -- -- 91
2017-08-01 07:00:00 19.9 0 Calma 6 Norte 0.6 -- -- 87
2017-08-01 06:00:00 20.5 2 Nordeste 9 Oeste 0 -- -- 76
2017-08-01 05:00:00 20.3 2 Noroeste 6 Oeste 0 -- -- 77
2017-08-01 04:00:00 20.7 0 Calma 5 Noroeste 0 -- -- 74
2017-08-01 03:00:00 21.5 0 Calma 5 Oeste 0 -- -- 70
2017-08-01 02:00:00 22.2 0 Calma 5 Noroeste 0 -- -- 67
2017-08-01 01:00:00 23.1 0 Calma 6 Noroeste 0 -- -- 64
2017-08-01 00:00:00 23.7 2 Norte 5 Este 0 -- -- 60
2017-07-31 23:00:00 25.6 0 Calma 6 Sudeste 0 -- -- 54
2017-07-31 22:00:00 28.2 0 Calma 10 Este 0 -- -- 46
2017-07-31 21:00:00 31.1 7 Sudeste 22 Sudeste 0 -- -- 38
2017-07-31 20:00:00 33.2 11 Sudeste 24 Sudeste 0 -- -- 35
2017-07-31 19:00:00 35.1 10 Sudeste 33 Sudeste 0 -- -- 29
2017-07-31 18:00:00 35.7 12 Sudeste 25 Sur 0 -- -- 30
2017-07-31 17:00:00 35.4 10 Sudeste 25 Sudeste 0 -- -- 34
2017-07-31 16:00:00 34.6 12 Sudeste 28 Sudeste 0 -- -- 35
2017-07-31 15:00:00 33.9 13 Sudeste 25 Este 0 -- -- 34
2017-07-31 14:00:00 32.5 13 Sudeste 27 Sudeste 0 -- -- 38
2017-07-31 13:00:00 31.2 10 Sudeste 23 Este 0 -- -- 42
2017-07-31 12:00:00 29.9 8 Sudeste 19 Sur 0 -- -- 44
2017-07-31 11:00:00 28.1 7 Sudeste 15 Sudeste 0 -- -- 48
2017-07-31 10:00:00 26.3 4 Sudeste 10 Sudeste 0 -- -- 58
2017-07-31 09:00:00 22.4 3 Noroeste 5 Oeste 0 -- -- 66
2017-07-31 08:00:00 18.8 2 Noroeste 5 Oeste 0 -- -- 83
2017-07-31 07:00:00 18.1 0 Calma 3 Sudeste 0 -- -- 82
2017-07-31 06:00:00 19.1 0 Calma 5 Noroeste 0 -- -- 82
2017-07-31 05:00:00 20 0 Calma 6 Nordeste 0 -- -- 80
2017-07-31 04:00:00 21 0 Calma 5 Oeste 0 -- -- 76
2017-07-31 03:00:00 21.7 0 Calma 6 Noroeste 0 -- -- 75
2017-07-31 02:00:00 22.5 2 Noroeste 6 Nordeste 0 -- -- 73
2017-07-31 01:00:00 23.5 0 Calma 5 Norte 0 -- -- 70
2017-07-31 00:00:00 25.5 0 Calma 12 Sur 0 -- -- 62
2017-07-30 23:00:00 27.2 4 Sur 13 Sudeste 0 -- -- 56
2017-07-30 22:00:00 28.9 7 Sur 19 Sudeste 0 -- -- 53
2017-07-30 21:00:00 30.7 5 Sudeste 24 Este 0 -- -- 49
2017-07-30 20:00:00 33.5 12 Sudeste 24 Sudeste 0 -- -- 41
2017-07-30 19:00:00 36.5 7 Sudeste 16 Sudeste 0 -- -- 29
2017-07-30 18:00:00 36.8 8 Sudeste 17 Sudeste 0 -- -- 27
2017-07-30 17:00:00 36.2 7 Sudeste 22 Sur 0 -- -- 32
2017-07-30 16:00:00 35.5 9 Sur 22 Sur 0 -- -- 37
2017-07-30 15:00:00 35 10 Sur 26 Sur 0 -- -- 35
2017-07-30 14:00:00 33.9 12 Sudeste 22 Sur 0 -- -- 36
2017-07-30 13:00:00 32.6 6 Sur 15 Sur 0 -- -- 39
2017-07-30 12:00:00 31.5 5 Sur 16 Sur 0 -- -- 45
2017-07-30 11:00:00 29.9 5 Sur 12 Sur 0 -- -- 47
2017-07-30 10:00:00 28.1 4 Sudeste 7 Noroeste 0 -- -- 56
2017-07-30 09:00:00 24.9 4 Noroeste 6 Noroeste 0 -- -- 68
2017-07-30 08:00:00 20.4 0 Calma 8 Noroeste 0 -- -- 84
2017-07-30 07:00:00 19.1 0 Calma 8 Noroeste 0 -- -- 88
2017-07-30 06:00:00 19.4 0 Calma 5 Noroeste 0 -- -- 88
2017-07-30 05:00:00 20.1 0 Calma 4 Nordeste 0 -- -- 86
2017-07-30 04:00:00 20.8 0 Calma 4 Sur 0 -- -- 83
2017-07-30 03:00:00 21.6 0 Calma 4 Noroeste 0 -- -- 81
2017-07-30 02:00:00 22.5 0 Calma 5 Nordeste 0 -- -- 77
2017-07-30 01:00:00 23.5 2 Sudoeste 6 Sudoeste 0 -- -- 77
2017-07-30 00:00:00 25.1 0 Calma 7 Sudeste 0 -- -- 72
2017-07-29 23:00:00 26.9 4 Sudeste 12 Sudeste 0 -- -- 67
2017-07-29 22:00:00 28.6 6 Sudeste 17 Sudeste 0 -- -- 61
2017-07-29 21:00:00 30.8 5 Sudeste 16 Sudeste 0 -- -- 53
2017-07-29 20:00:00 33.1 6 Sudeste 18 Sudeste 0 -- -- 45
2017-07-29 19:00:00 34.7 9 Sudeste 15 Sur 0 -- -- 39
2017-07-29 18:00:00 35 8 Sudeste 17 Sur 0 -- -- 38
2017-07-29 17:00:00 34.5 6 Sudeste 17 Este 0 -- -- 35
2017-07-29 16:00:00 33.6 8 Sudeste 27 Este 0 -- -- 42
2017-07-29 15:00:00 32.7 9 Sur 21 Sudeste 0 -- -- 46
2017-07-29 14:00:00 31.7 9 Sudeste 20 Sudeste 0 -- -- 42
2017-07-29 13:00:00 30.9 8 Sudeste 20 Sudeste 0 -- -- 45
2017-07-29 12:00:00 29.6 8 Sudeste 18 Sudeste 0 -- -- 46
2017-07-29 11:00:00 28.3 6 Este 15 Sudeste 0 -- -- 49
2017-07-29 10:00:00 26.8 5 Sudeste 10 Sudeste 0 -- -- 56
2017-07-29 09:00:00 24.2 3 Noroeste 6 Norte 0 -- -- 69
2017-07-29 08:00:00 19.9 0 Calma 4 Sur 0 -- -- 86
2017-07-29 07:00:00 19.1 0 Calma 3 Oeste 0 -- -- 85
2017-07-29 06:00:00 19.8 0 Calma 3 Nordeste 0 -- -- 85
2017-07-29 05:00:00 20.4 0 Calma 4 Noroeste 0 -- -- 85
2017-07-29 04:00:00 20.6 0 Calma 4 Nordeste 0 -- -- 84
2017-07-29 03:00:00 21.4 3 Noroeste 6 Noroeste 0 -- -- 80
2017-07-29 02:00:00 22 0 Calma 4 Este 0 -- -- 79
2017-07-29 01:00:00 23.1 0 Calma 4 Sudeste 0 -- -- 75
2017-07-29 00:00:00 24.2 2 Norte 4 Sudeste 0 -- -- 70
2017-07-28 23:00:00 25.9 2 Sudeste 9 Sudeste 0 -- -- 65
2017-07-28 22:00:00 28.1 4 Sudeste 12 Sudeste 0 -- -- 57
2017-07-28 21:00:00 30.6 4 Este 11 Sudeste 0 -- -- 46
2017-07-28 20:00:00 32.9 6 Sudeste 17 Sur 0 -- -- 40
2017-07-28 19:00:00 34.3 8 Sudeste 17 Sudeste 0 -- -- 32
2017-07-28 18:00:00 34.1 6 Sudeste 15 Sur 0 -- -- 35
2017-07-28 17:00:00 33.7 6 Sudeste 16 Sudeste 0 -- -- 38
2017-07-28 16:00:00 32.6 10 Sur 22 Sur 0 -- -- 42
2017-07-28 15:00:00 31.5 9 Sudeste 22 Sudeste 0 -- -- 47
2017-07-28 14:00:00 29.9 12 Sudeste 26 Sur 0 -- -- 49
2017-07-28 13:00:00 29.1 11 Sudeste 27 Sudeste 0 -- -- 51
2017-07-28 12:00:00 28.1 13 Sudeste 24 Sudeste 0 -- -- 55
2017-07-28 11:00:00 28.1 8 Sudeste 17 Sudeste 0 -- -- 57
2017-07-28 10:00:00 26.4 5 Sudeste 9 Sudeste 0 -- -- 62
2017-07-28 09:00:00 23.7 0 Calma 8 Oeste 0 -- -- 59
2017-07-28 08:00:00 19.4 2 Noroeste 6 Noroeste 0 -- -- 76
2017-07-28 07:00:00 17.7 0 Calma 4 Noroeste 0 -- -- 80
2017-07-28 06:00:00 18.1 0 Calma 4 Norte 0 -- -- 77
2017-07-28 05:00:00 18.8 0 Calma 4 Nordeste 0 -- -- 72
2017-07-28 04:00:00 19.9 3 Oeste 8 Noroeste 0 -- -- 67
2017-07-28 03:00:00 20.9 4 Noroeste 10 Norte 0 -- -- 58
2017-07-28 02:00:00 21.2 4 Noroeste 6 Noroeste 0 -- -- 59
2017-07-28 01:00:00 22.5 4 Noroeste 9 Noroeste 0 -- -- 51
2017-07-28 00:00:00 23 2 Noroeste 7 Este 0 -- -- 56
2017-07-27 23:00:00 24.7 2 Sudeste 10 Este 0 -- -- 51
2017-07-27 22:00:00 27.4 3 Este 10 Nordeste 0 -- -- 43
2017-07-27 21:00:00 32.5 6 Sudoeste 18 Sudoeste 0 -- -- 32
2017-07-27 20:00:00 36.1 8 Sudoeste 17 Sudoeste 0 -- -- 21
2017-07-27 19:00:00 37.6 9 Oeste 23 Sur 0 -- -- 18
2017-07-27 18:00:00 37 13 Sudoeste 28 Sudoeste 0 -- -- 20
2017-07-27 17:00:00 35.9 9 Sur 25 Sudoeste 0 -- -- 22
2017-07-27 16:00:00 35.1 8 Sur 28 Sur 0 -- -- 24
2017-07-27 15:00:00 33.2 9 Sur 19 Sur 0 -- -- 27
2017-07-27 14:00:00 31.3 6 Sur 18 Sudeste 0 -- -- 35
2017-07-27 13:00:00 29.8 4 Norte 14 Sur 0 -- -- 39
2017-07-27 12:00:00 28 6 Sur 14 Sur 0 -- -- 44
2017-07-27 11:00:00 26.7 5 Este 12 Este 0 -- -- 46
2017-07-27 10:00:00 25.2 2 Este 5 Este 0 -- -- 49
2017-07-27 09:00:00 21.5 2 Este 6 Sudeste 0 -- -- 59
2017-07-27 08:00:00 16.6 0 Calma 3 Sudeste 0 -- -- 76
2017-07-27 07:00:00 14.4 0 Calma 4 Norte 0 -- -- 79
2017-07-27 06:00:00 14.9 0 Calma 3 Oeste 0 -- -- 77
2017-07-27 05:00:00 15.7 0 Calma 6 Noroeste 0 -- -- 73
2017-07-27 04:00:00 16.9 0 Calma 4 Oeste 0 -- -- 71
2017-07-27 03:00:00 17.9 0 Calma 8 Norte 0 -- -- 66
2017-07-27 02:00:00 18.9 0 Calma 5 Sur 0 -- -- 64
2017-07-27 01:00:00 20.5 0 Calma 5 Sur 0 -- -- 59
2017-07-27 00:00:00 22.4 2 Sudeste 6 Norte 0 -- -- 50
2017-07-26 23:00:00 25.5 4 Norte 23 Oeste 0 -- -- 40
2017-07-26 22:00:00 28.1 15 Oeste 31 Oeste 0 -- -- 34
2017-07-26 21:00:00 29.9 8 Oeste 31 Oeste 0 -- -- 33
2017-07-26 20:00:00 32.2 13 Oeste 31 Sudoeste 0 -- -- 29
2017-07-26 19:00:00 32.6 12 Sur 23 Sur 0 -- -- 31
2017-07-26 18:00:00 33 10 Sur 23 Sudoeste 0 -- -- 28
2017-07-26 17:00:00 32.2 7 Sudoeste 18 Sudoeste 0 -- -- 30
2017-07-26 16:00:00 30.2 11 Sudeste 23 Oeste 0 -- -- 32
2017-07-26 15:00:00 28.5 11 Sudeste 23 Sudoeste 0 -- -- 35
2017-07-26 14:00:00 27.1 8 Sudeste 20 Sudoeste 0 -- -- 39
2017-07-26 13:00:00 25.6 10 Sudoeste 22 Sudoeste 0 -- -- 37
2017-07-26 12:00:00 23.4 7 Sudeste 17 Sur 0 -- -- 49
2017-07-26 11:00:00 21.8 5 Sur 15 Sur 0 -- -- 51
2017-07-26 10:00:00 20.5 4 Sudeste 10 Sudeste 0 -- -- 54
2017-07-26 09:00:00 17.3 0 Calma 3 Nordeste 0 -- -- 66
2017-07-26 08:00:00 13 0 Calma 3 Norte 0 -- -- 82
2017-07-26 07:00:00 11.5 0 Calma 2 Oeste 0 -- -- 83
2017-07-26 06:00:00 11.8 0 Calma 3 Noroeste 0 -- -- 81
2017-07-26 05:00:00 12.3 0 Calma 3 Oeste 0 -- -- 79
2017-07-26 04:00:00 13.1 0 Calma 3 Nordeste 0 -- -- 77
2017-07-26 03:00:00 14 0 Calma 3 Sur 0 -- -- 75
2017-07-26 02:00:00 15.2 0 Calma 6 Nordeste 0 -- -- 69
2017-07-26 01:00:00 16.7 0 Calma 5 Este 0 -- -- 66
2017-07-26 00:00:00 18.5 0 Calma 8 Sudeste 0 -- -- 59
2017-07-25 23:00:00 20.8 3 Este 27 Oeste 0 -- -- 52
2017-07-25 22:00:00 23.1 14 Oeste 27 Oeste 0 -- -- 43
2017-07-25 21:00:00 25.4 8 Sudoeste 30 Sudoeste 0 -- -- 39
2017-07-25 20:00:00 27.8 12 Oeste 32 Sudoeste 0 -- -- 35
2017-07-25 19:00:00 29.4 17 Sudoeste 36 Sudoeste 0 -- -- 31
2017-07-25 18:00:00 30.2 15 Sudoeste 36 Sudoeste 0 -- -- 29
2017-07-25 17:00:00 30.9 13 Sur 35 Oeste 0 -- -- 28
2017-07-25 16:00:00 30.1 10 Sudoeste 28 Sudoeste 0 -- -- 29
2017-07-25 15:00:00 29.2 10 Sudoeste 24 Sur 0 -- -- 30
2017-07-25 14:00:00 27.8 10 Sur 28 Sur 0 -- -- 31
2017-07-25 13:00:00 26.1 11 Sudeste 25 Sudeste 0 -- -- 39
2017-07-25 12:00:00 24.6 9 Sudoeste 20 Sur 0 -- -- 45
2017-07-25 11:00:00 23.1 6 Sur 13 Sudeste 0 -- -- 49
2017-07-25 10:00:00 21.3 4 Este 9 Sudeste 0 -- -- 56
2017-07-25 09:00:00 19.3 0 Calma 5 Norte 0 -- -- 60
2017-07-25 08:00:00 14.4 0 Calma 3 Norte 0 -- -- 78
2017-07-25 07:00:00 12.2 0 Calma 4 Oeste 0 -- -- 83
2017-07-25 06:00:00 12.7 0 Calma 5 Oeste 0 -- -- 82
2017-07-25 05:00:00 13.5 0 Calma 4 Oeste 0 -- -- 79
2017-07-25 04:00:00 14.6 0 Calma 8 Norte 0 -- -- 75
2017-07-25 03:00:00 15 0 Calma 4 Norte 0 -- -- 75
2017-07-25 02:00:00 16.1 2 Este 6 Nordeste 0 -- -- 70
2017-07-25 01:00:00 17.6 0 Calma 5 Noroeste 0 -- -- 64
2017-07-25 00:00:00 19.6 3 Sur 11 Sudoeste 0 -- -- 57
2017-07-24 23:00:00 22.4 5 Sudoeste 18 Oeste 0 -- -- 50
2017-07-24 22:00:00 24.3 8 Oeste 41 Sudoeste 0 -- -- 44
2017-07-24 21:00:00 26 17 Oeste 42 Oeste 0 -- -- 41
2017-07-24 20:00:00 28.6 19 Oeste 37 Oeste 0 -- -- 36
2017-07-24 19:00:00 30.5 19 Oeste 45 Oeste 0 -- -- 32
2017-07-24 18:00:00 32.5 14 Oeste 36 Oeste 0 -- -- 28
2017-07-24 17:00:00 32.9 14 Oeste 32 Oeste 0 -- -- 29
2017-07-24 16:00:00 32.7 15 Oeste 38 Oeste 0 -- -- 29
2017-07-24 15:00:00 32.2 15 Oeste 36 Oeste 0 -- -- 30
2017-07-24 14:00:00 32.2 13 Oeste 28 Noroeste 0 -- -- 27
2017-07-24 13:00:00 31.1 10 Oeste 30 Oeste 0 -- -- 30
2017-07-24 12:00:00 29.8 14 Noroeste 33 Noroeste 0 -- -- 33
2017-07-24 11:00:00 27.1 7 Este 22 Norte 0 -- -- 47
2017-07-24 10:00:00 24.6 4 Norte 9 Nordeste 0 -- -- 54
2017-07-24 09:00:00 21.2 3 Este 6 Nordeste 0 -- -- 68
2017-07-24 08:00:00 17 0 Calma 5 Sudeste 0 -- -- 82
2017-07-24 07:00:00 15.3 2 Nordeste 4 Nordeste 0 -- -- 86
2017-07-24 06:00:00 16.2 0 Calma 6 Norte 0 -- -- 87
2017-07-24 05:00:00 16.5 0 Calma 2 Nordeste 0 -- -- 89
2017-07-24 04:00:00 17 0 Calma 6 Sudoeste 0 -- -- 88
2017-07-24 03:00:00 17.8 0 Calma 3 Nordeste 0 -- -- 86
2017-07-24 02:00:00 18.6 0 Calma -- -- 0 -- -- 83
2017-07-24 01:00:00 19.5 0 Calma 2 Sudeste 0 -- -- 79
2017-07-24 00:00:00 21.1 2 Oeste 5 Norte 0 -- -- 72
2017-07-23 23:00:00 22.7 0 Calma 11 Oeste 0 -- -- 66
2017-07-23 22:00:00 24.7 4 Noroeste 30 Norte 0 -- -- 55
2017-07-23 21:00:00 26.1 0 Calma 10 Sudeste 0 -- -- 64
2017-07-23 20:00:00 27.1 6 Este 21 Sudeste 0 -- -- 62
2017-07-23 19:00:00 28.7 8 Sudeste 18 Sur 0 -- -- 54
2017-07-23 18:00:00 29.4 9 Sur 19 Sur 0 -- -- 51
2017-07-23 17:00:00 28.7 9 Sur 24 Sur 0 -- -- 54
2017-07-23 16:00:00 29.7 10 Sur 23 Sur 0 -- -- 52
2017-07-23 15:00:00 28.5 12 Sur 25 Sur 0 -- -- 56
2017-07-23 14:00:00 27.6 14 Sur 24 Sur 0 -- -- 57
2017-07-23 13:00:00 26.3 9 Sudeste 24 Sur 0 -- -- 62
2017-07-23 12:00:00 26.1 12 Sur 22 Sur 0 -- -- 65
2017-07-23 11:00:00 25.5 8 Sudeste 18 Sudeste 0 -- -- 69
2017-07-23 10:00:00 24.9 4 Este 12 Este 0 -- -- 71
2017-07-23 09:00:00 22.3 3 Sudeste 5 Sudeste 0 -- -- 83
2017-07-23 08:00:00 21.5 0 Calma -- -- 0 -- -- 86
2017-07-23 07:00:00 21 0 Calma 5 Noroeste 0 -- -- 87
2017-07-23 06:00:00 20.4 0 Calma 4 Noroeste 0 -- -- 89
2017-07-23 05:00:00 19.9 0 Calma 3 Este 0 -- -- 88
2017-07-23 04:00:00 20.1 0 Calma 4 Noroeste 0 -- -- 85
2017-07-23 03:00:00 20.6 2 Oeste 4 Noroeste 0 -- -- 84
2017-07-23 02:00:00 21.5 0 Calma 4 Oeste 0 -- -- 82
2017-07-23 01:00:00 22.5 0 Calma 3 Sudoeste 0 -- -- 78
2017-07-23 00:00:00 23.7 0 Calma 5 Sudeste 0 -- -- 75
2017-07-22 23:00:00 25.1 0 Calma 9 Sudeste 0 -- -- 71
2017-07-22 22:00:00 26.6 4 Sudeste 13 Este 0 -- -- 64
2017-07-22 21:00:00 28.6 3 Sudeste 9 Este 0 -- -- 51
2017-07-22 20:00:00 31.3 3 Sudeste 10 Sudeste 0 -- -- 37
2017-07-22 19:00:00 32.1 4 Sudeste 12 Sur 0 -- -- 35
2017-07-22 18:00:00 32.3 7 Sudeste 16 Sudeste 0 -- -- 34
2017-07-22 17:00:00 31.1 8 Este 17 Sudeste 0 -- -- 41
2017-07-22 16:00:00 30.1 7 Sudeste 21 Sur 0 -- -- 47
2017-07-22 15:00:00 29.5 12 Sur 27 Sur 0 -- -- 52
2017-07-22 14:00:00 28.4 10 Sudeste 22 Este 0 -- -- 57
2017-07-22 13:00:00 27.8 9 Sudeste 22 Sur 0 -- -- 58
2017-07-22 12:00:00 27.1 9 Sudeste 16 Sudeste 0 -- -- 60
2017-07-22 11:00:00 25.9 5 Sudeste 13 Sudeste 0 -- -- 62
2017-07-22 10:00:00 24.4 3 Sudeste 8 Sudeste 0 -- -- 65
2017-07-22 09:00:00 22.7 4 Noroeste 6 Noroeste 0 -- -- 72
2017-07-22 08:00:00 19 3 Noroeste 6 Noroeste 0 -- -- 87
2017-07-22 07:00:00 17 0 Calma -- -- 0 -- -- 91
2017-07-22 06:00:00 17.4 0 Calma 7 Sudeste 0 -- -- 89
2017-07-22 05:00:00 17.9 0 Calma 4 Norte 0 -- -- 88
2017-07-22 04:00:00 18.5 0 Calma 5 Noroeste 0 -- -- 85
2017-07-22 03:00:00 19 3 Noroeste 8 Noroeste 0 -- -- 83
2017-07-22 02:00:00 19.8 0 Calma 6 Noroeste 0 -- -- 82
2017-07-22 01:00:00 20.7 0 Calma 6 Noroeste 0 -- -- 79
2017-07-22 00:00:00 22 0 Calma 8 Nordeste 0 -- -- 73